Time;durP1;ratioP1;P1;durP2;ratioP2;P2;SDS_P1;SDS_P2;PMS_P1;PMS_P2;Temp;Humidity;BMP_temperature;BMP_pressure;BME280_temperature;BME280_humidity;BME280_pressure;Samples;Min_cycle;Max_cycle;Signal;HPM_P1;HPM_P2
2021/04/29 00:01:46;;;;;;;8.90;4.07;;;;;;;;;;5039131;28;20315;-53
2021/04/29 00:04:12;;;;;;;14.93;4.63;;;;;;;;;;5039912;28;20049;-52
2021/04/29 00:06:38;;;;;;;10.10;3.90;;;;;;;;;;5039965;28;20045;-54
2021/04/29 00:09:04;;;;;;;12.93;4.18;;;;;;;;;;5039874;28;20041;-49
2021/04/29 00:11:31;;;;;;;12.00;4.22;;;;;;;;;;5033012;28;20053;-52
2021/04/29 00:13:57;;;;;;;9.18;4.10;;;;;;;;;;5037376;28;20037;-51
2021/04/29 00:16:24;;;;;;;13.50;4.80;;;;;;;;;;5035487;28;20049;-53
2021/04/29 00:18:50;;;;;;;11.88;4.18;;;;;;;;;;5034495;28;20118;-52
2021/04/29 00:21:16;;;;;;;12.25;5.28;;;;;;;;;;5033555;28;20056;-48
2021/04/29 00:23:42;;;;;;;12.32;4.93;;;;;;;;;;5037480;28;20065;-51
2021/04/29 00:26:11;;;;;;;11.88;4.20;;;;;;;;;;5037143;28;20052;-48
2021/04/29 00:28:37;;;;;;;20.48;5.07;;;;;;;;;;5037582;28;20050;-52
2021/04/29 00:31:03;;;;;;;13.45;4.95;;;;;;;;;;5036436;28;20049;-49
2021/04/29 00:33:30;;;;;;;11.45;4.63;;;;;;;;;;5037036;28;20037;-49
2021/04/29 00:36:00;;;;;;;12.32;4.65;;;;;;;;;;5036683;28;20135;-48
2021/04/29 00:38:26;;;;;;;15.57;4.88;;;;;;;;;;5038173;28;20049;-55
2021/04/29 00:40:52;;;;;;;13.48;5.32;;;;;;;;;;5042463;28;20044;-50
2021/04/29 00:43:18;;;;;;;13.98;4.95;;;;;;;;;;5036575;28;20033;-51
2021/04/29 00:45:45;;;;;;;15.65;4.47;;;;;;;;;;5035797;28;21888;-50
2021/04/29 00:48:17;;;;;;;9.88;4.47;;;;;;;;;;5037906;28;20045;-49
2021/04/29 00:50:43;;;;;;;10.52;4.15;;;;;;;;;;5038564;28;20045;-50
2021/04/29 00:53:09;;;;;;;9.30;4.10;;;;;;;;;;5032874;28;20410;-49
2021/04/29 00:55:35;;;;;;;11.23;4.05;;;;;;;;;;5040128;28;20041;-53
2021/04/29 00:58:01;;;;;;;10.75;4.18;;;;;;;;;;5034708;28;20072;-51
2021/04/29 01:00:27;;;;;;;10.07;4.07;;;;;;;;;;5038464;28;20191;-47
2021/04/29 01:02:55;;;;;;;12.45;4.60;;;;;;;;;;5034675;28;20045;-54
2021/04/29 01:05:22;;;;;;;10.15;4.00;;;;;;;;;;5041270;28;20049;-55
2021/04/29 01:07:52;;;;;;;11.57;4.47;;;;;;;;;;5033687;28;20045;-55
2021/04/29 01:10:22;;;;;;;12.07;4.88;;;;;;;;;;5036789;28;20476;-54
2021/04/29 01:12:52;;;;;;;16.27;5.28;;;;;;;;;;5051693;28;20064;-53
2021/04/29 01:15:18;;;;;;;9.00;4.18;;;;;;;;;;5037859;28;20038;-49
2021/04/29 01:17:47;;;;;;;16.00;5.07;;;;;;;;;;5034580;28;20049;-53
2021/04/29 01:20:17;;;;;;;10.85;5.45;;;;;;;;;;5038332;28;20048;-48
2021/04/29 01:22:47;;;;;;;16.85;5.32;;;;;;;;;;5033585;28;20187;-51
2021/04/29 01:25:15;;;;;;;11.82;4.93;;;;;;;;;;5039331;28;20034;-54
2021/04/29 01:27:43;;;;;;;17.33;4.75;;;;;;;;;;5037269;28;20104;-51
2021/04/29 01:30:11;;;;;;;13.63;5.30;;;;;;;;;;5028875;28;20038;-51
2021/04/29 01:32:37;;;;;;;14.60;5.10;;;;;;;;;;5038325;28;20048;-51
2021/04/29 01:35:04;;;;;;;12.07;5.53;;;;;;;;;;5036114;28;20072;-49
2021/04/29 01:37:31;;;;;;;14.20;5.25;;;;;;;;;;5035749;28;20045;-51
2021/04/29 01:39:57;;;;;;;13.82;5.43;;;;;;;;;;5034245;28;20053;-48
2021/04/29 01:42:23;;;;;;;12.63;5.07;;;;;;;;;;5040411;28;20045;-47
2021/04/29 01:44:50;;;;;;;11.50;5.20;;;;;;;;;;5027866;28;20097;-47
2021/04/29 01:47:16;;;;;;;13.25;4.70;;;;;;;;;;5039831;28;20041;-50
2021/04/29 01:49:43;;;;;;;9.93;4.80;;;;;;;;;;5033988;28;20041;-50
2021/04/29 01:52:09;;;;;;;8.50;4.78;;;;;;;;;;5038007;28;20060;-52
2021/04/29 01:54:37;;;;;;;12.18;5.05;;;;;;;;;;5035632;28;20033;-48
2021/04/29 01:57:03;;;;;;;11.98;4.85;;;;;;;;;;5040663;28;20086;-49
2021/04/29 01:59:29;;;;;;;15.73;5.05;;;;;;;;;;5031455;28;20061;-51
2021/04/29 02:01:56;;;;;;;10.77;5.00;;;;;;;;;;5040978;28;20127;-52
2021/04/29 02:04:21;;;;;;;14.93;5.53;;;;;;;;;;5046552;28;20056;-51
2021/04/29 02:06:48;;;;;;;12.13;5.43;;;;;;;;;;5047302;28;20020;-48
2021/04/29 02:09:14;;;;;;;12.75;4.85;;;;;;;;;;5064215;28;20055;-49
2021/04/29 02:11:41;;;;;;;12.48;5.55;;;;;;;;;;5035362;28;20045;-51
2021/04/29 02:14:09;;;;;;;15.18;5.10;;;;;;;;;;5040723;28;20048;-51
2021/04/29 02:16:39;;;;;;;12.90;4.90;;;;;;;;;;5054821;28;20055;-53
2021/04/29 02:19:07;;;;;;;11.10;5.03;;;;;;;;;;5044205;28;20029;-53
2021/04/29 02:21:34;;;;;;;11.75;4.70;;;;;;;;;;5037212;28;20045;-53
2021/04/29 02:24:01;;;;;;;11.43;4.95;;;;;;;;;;5041387;28;20091;-56
2021/04/29 02:26:29;;;;;;;12.95;5.15;;;;;;;;;;5038760;28;20041;-51
2021/04/29 02:28:56;;;;;;;11.15;5.28;;;;;;;;;;5075482;28;20060;-51
2021/04/29 02:31:22;;;;;;;16.45;5.22;;;;;;;;;;5058269;28;20052;-51
2021/04/29 02:33:48;;;;;;;13.57;5.57;;;;;;;;;;5042472;28;20044;-50
2021/04/29 02:36:15;;;;;;;13.98;5.47;;;;;;;;;;5040366;28;20094;-53
2021/04/29 02:38:41;;;;;;;13.90;4.93;;;;;;;;;;5044843;28;20040;-52
2021/04/29 02:41:08;;;;;;;11.63;5.32;;;;;;;;;;5039195;28;20118;-52
2021/04/29 02:43:34;;;;;;;14.20;5.32;;;;;;;;;;5044492;28;20226;-52
2021/04/29 02:46:01;;;;;;;14.77;5.80;;;;;;;;;;5040586;28;20029;-49
2021/04/29 02:48:27;;;;;;;12.82;5.25;;;;;;;;;;5043974;28;20037;-50
2021/04/29 02:50:53;;;;;;;15.00;5.57;;;;;;;;;;5062129;28;20067;-48
2021/04/29 02:53:20;;;;;;;17.08;6.22;;;;;;;;;;5039769;28;20040;-55
2021/04/29 02:55:48;;;;;;;18.13;5.78;;;;;;;;;;5043368;28;20090;-53
2021/04/29 02:58:16;;;;;;;13.52;5.40;;;;;;;;;;5058028;28;20040;-53
2021/04/29 03:00:43;;;;;;;14.07;5.65;;;;;;;;;;5043185;28;20057;-51
2021/04/29 03:03:09;;;;;;;12.93;5.45;;;;;;;;;;5037783;28;20041;-51
2021/04/29 03:05:35;;;;;;;13.70;5.22;;;;;;;;;;5037650;28;20052;-49
2021/04/29 03:08:03;;;;;;;13.27;5.35;;;;;;;;;;5034837;28;20056;-51
2021/04/29 03:10:33;;;;;;;15.03;5.93;;;;;;;;;;5039542;28;20125;-50
2021/04/29 03:12:59;;;;;;;12.32;5.50;;;;;;;;;;5048789;28;20131;-49
2021/04/29 03:15:25;;;;;;;14.18;6.28;;;;;;;;;;5040349;28;20077;-49
2021/04/29 03:17:51;;;;;;;14.35;6.60;;;;;;;;;;5035064;28;20090;-50
2021/04/29 03:20:17;;;;;;;16.08;6.13;;;;;;;;;;5038131;28;20045;-49
2021/04/29 03:22:43;;;;;;;13.27;5.70;;;;;;;;;;5037159;28;20045;-47
2021/04/29 03:25:09;;;;;;;12.75;5.80;;;;;;;;;;5044345;28;20061;-52
2021/04/29 03:27:36;;;;;;;14.70;5.60;;;;;;;;;;5040229;28;20055;-50
2021/04/29 03:30:02;;;;;;;12.75;5.90;;;;;;;;;;5041759;28;20040;-50
2021/04/29 03:32:28;;;;;;;14.60;6.15;;;;;;;;;;5060543;28;20048;-50
2021/04/29 03:34:54;;;;;;;12.63;6.22;;;;;;;;;;5040424;28;20040;-52
2021/04/29 03:37:22;;;;;;;14.40;5.80;;;;;;;;;;5045528;28;20064;-53
2021/04/29 03:39:48;;;;;;;14.47;6.03;;;;;;;;;;5040639;28;20037;-49
2021/04/29 03:42:14;;;;;;;14.13;5.93;;;;;;;;;;5043878;28;20033;-51
2021/04/29 03:44:41;;;;;;;14.00;5.95;;;;;;;;;;5055291;28;20064;-54
2021/04/29 03:47:08;;;;;;;12.60;5.40;;;;;;;;;;5046880;28;20046;-54
2021/04/29 03:49:34;;;;;;;13.40;6.00;;;;;;;;;;5038521;28;20070;-51
2021/04/29 03:52:00;;;;;;;16.20;6.82;;;;;;;;;;5041374;28;20037;-50
2021/04/29 03:54:26;;;;;;;14.63;6.18;;;;;;;;;;5052584;28;20128;-52
2021/04/29 03:56:53;;;;;;;12.02;6.13;;;;;;;;;;5046376;28;20052;-52
2021/04/29 03:59:19;;;;;;;17.33;6.32;;;;;;;;;;5038876;28;20045;-51
2021/04/29 04:01:46;;;;;;;14.77;6.57;;;;;;;;;;5041777;28;20056;-53
2021/04/29 04:04:12;;;;;;;17.08;6.88;;;;;;;;;;5044215;28;20041;-56
2021/04/29 04:06:38;;;;;;;15.48;6.93;;;;;;;;;;5045488;28;20121;-51
2021/04/29 04:09:04;;;;;;;12.75;5.10;;;;;;;;;;5059928;28;20084;-55
2021/04/29 04:11:30;;;;;;;12.57;5.28;;;;;;;;;;5041199;28;20053;-49
2021/04/29 04:13:56;;;;;;;12.32;5.60;;;;;;;;;;5043708;28;20065;-49
2021/04/29 04:16:23;;;;;;;12.35;6.18;;;;;;;;;;5037595;28;20061;-52
2021/04/29 04:18:49;;;;;;;17.65;6.20;;;;;;;;;;5042320;28;20048;-53
2021/04/29 04:21:15;;;;;;;14.88;6.22;;;;;;;;;;5054113;28;20045;-53
2021/04/29 04:23:41;;;;;;;14.52;6.00;;;;;;;;;;5046073;28;20045;-54
2021/04/29 04:26:07;;;;;;;15.48;5.85;;;;;;;;;;5059623;28;20056;-50
2021/04/29 04:28:33;;;;;;;14.15;6.55;;;;;;;;;;5045569;28;20185;-53
2021/04/29 04:30:59;;;;;;;11.80;6.43;;;;;;;;;;5042160;28;20056;-52
2021/04/29 04:33:25;;;;;;;14.63;6.05;;;;;;;;;;5045496;28;20037;-54
2021/04/29 04:35:52;;;;;;;15.00;7.15;;;;;;;;;;5039358;28;20045;-49
2021/04/29 04:38:18;;;;;;;20.05;7.93;;;;;;;;;;5043804;28;20045;-49
2021/04/29 04:40:45;;;;;;;15.30;7.22;;;;;;;;;;5042773;28;20044;-53
2021/04/29 04:43:11;;;;;;;20.48;7.60;;;;;;;;;;5063716;28;20057;-51
2021/04/29 04:45:37;;;;;;;16.80;7.95;;;;;;;;;;5041538;28;20093;-51
2021/04/29 04:48:03;;;;;;;22.45;8.25;;;;;;;;;;5045483;28;20045;-48
2021/04/29 04:50:29;;;;;;;17.42;7.78;;;;;;;;;;5043819;28;20178;-48
2021/04/29 04:52:56;;;;;;;16.23;7.68;;;;;;;;;;5059141;28;20040;-53
2021/04/29 04:55:22;;;;;;;17.17;8.50;;;;;;;;;;5045563;28;20048;-52
2021/04/29 04:57:49;;;;;;;16.90;7.68;;;;;;;;;;5038552;28;20049;-50
2021/04/29 05:00:16;;;;;;;18.48;8.20;;;;;;;;;;5041601;28;20052;-49
2021/04/29 05:02:42;;;;;;;18.23;7.97;;;;;;;;;;5035704;28;20048;-51
2021/04/29 05:05:08;;;;;;;24.55;10.35;;;;;;;;;;5044964;28;20041;-49
2021/04/29 05:07:34;;;;;;;32.83;13.80;;;;;;;;;;5040622;28;20049;-52
2021/04/29 05:10:01;;;;;;;21.40;9.32;;;;;;;;;;5026940;28;20041;-52
2021/04/29 05:12:27;;;;;;;19.90;8.27;;;;;;;;;;5054931;28;20048;-52
2021/04/29 05:14:53;;;;;;;15.82;7.70;;;;;;;;;;5040596;28;20083;-54
2021/04/29 05:17:19;;;;;;;17.25;7.90;;;;;;;;;;5040277;28;20120;-50
2021/04/29 05:19:45;;;;;;;20.05;8.07;;;;;;;;;;5039616;28;20029;-52
2021/04/29 05:22:14;;;;;;;17.70;8.43;;;;;;;;;;5039855;28;20112;-51
2021/04/29 05:24:40;;;;;;;18.00;7.82;;;;;;;;;;5038344;28;20060;-49
2021/04/29 05:27:07;;;;;;;15.43;7.68;;;;;;;;;;5040121;28;20126;-51
2021/04/29 05:29:34;;;;;;;15.93;8.02;;;;;;;;;;5039028;28;20061;-48
2021/04/29 05:32:00;;;;;;;16.77;7.80;;;;;;;;;;5042364;28;20078;-53
2021/04/29 05:34:27;;;;;;;19.10;9.00;;;;;;;;;;5037334;28;20067;-52
2021/04/29 05:36:56;;;;;;;18.23;8.00;;;;;;;;;;5042136;28;20048;-51
2021/04/29 05:39:22;;;;;;;15.30;7.65;;;;;;;;;;5033405;28;20122;-48
2021/04/29 05:41:48;;;;;;;21.50;9.15;;;;;;;;;;5060342;28;20052;-50
2021/04/29 05:44:14;;;;;;;20.27;8.13;;;;;;;;;;5055677;28;20059;-50
2021/04/29 05:46:42;;;;;;;20.77;8.52;;;;;;;;;;5042503;28;20045;-54
2021/04/29 05:49:08;;;;;;;14.65;6.68;;;;;;;;;;5035350;28;20032;-51
2021/04/29 05:51:34;;;;;;;17.40;7.32;;;;;;;;;;5041629;28;20045;-48
2021/04/29 05:54:00;;;;;;;17.77;7.72;;;;;;;;;;5036371;28;20102;-53
2021/04/29 05:56:27;;;;;;;18.45;7.82;;;;;;;;;;5043283;28;20079;-50
2021/04/29 05:58:53;;;;;;;19.73;8.48;;;;;;;;;;5037884;28;20051;-52
2021/04/29 06:01:20;;;;;;;15.23;7.00;;;;;;;;;;5042185;28;20037;-56
2021/04/29 06:03:48;;;;;;;17.13;8.68;;;;;;;;;;5035981;28;20037;-54
2021/04/29 06:06:14;;;;;;;16.83;7.70;;;;;;;;;;5040901;28;20121;-53
2021/04/29 06:08:40;;;;;;;16.05;8.07;;;;;;;;;;5040082;28;20045;-53
2021/04/29 06:11:06;;;;;;;17.13;7.90;;;;;;;;;;5039564;28;20319;-51
2021/04/29 06:13:32;;;;;;;22.10;7.95;;;;;;;;;;5041270;28;20041;-53
2021/04/29 06:15:58;;;;;;;19.92;8.50;;;;;;;;;;5039721;28;20048;-53
2021/04/29 06:18:25;;;;;;;20.20;8.90;;;;;;;;;;5040343;28;20061;-54
2021/04/29 06:20:51;;;;;;;17.15;8.20;;;;;;;;;;5051686;28;20041;-53
2021/04/29 06:23:17;;;;;;;16.65;7.10;;;;;;;;;;5044056;28;20047;-53
2021/04/29 06:25:44;;;;;;;15.05;6.43;;;;;;;;;;5037226;28;20049;-51
2021/04/29 06:28:11;;;;;;;14.10;6.47;;;;;;;;;;5024785;28;20037;-51
2021/04/29 06:30:38;;;;;;;17.48;6.80;;;;;;;;;;5004506;28;20046;-52
2021/04/29 06:33:04;;;;;;;15.27;6.70;;;;;;;;;;5043197;28;20040;-54
2021/04/29 06:35:31;;;;;;;16.38;6.97;;;;;;;;;;5039186;28;20168;-52
2021/04/29 06:37:57;;;;;;;13.70;6.30;;;;;;;;;;5042822;28;20037;-50
2021/04/29 06:40:25;;;;;;;16.40;7.53;;;;;;;;;;5045292;28;20055;-50
2021/04/29 06:42:51;;;;;;;16.27;8.40;;;;;;;;;;5045305;28;20051;-55
2021/04/29 06:45:17;;;;;;;13.95;7.18;;;;;;;;;;5038982;28;20037;-52
2021/04/29 06:47:43;;;;;;;19.90;8.32;;;;;;;;;;5045375;28;20048;-54
2021/04/29 06:50:10;;;;;;;16.25;7.80;;;;;;;;;;5044267;28;20037;-54
2021/04/29 06:52:37;;;;;;;17.20;7.13;;;;;;;;;;5056780;28;20041;-51
2021/04/29 06:55:03;;;;;;;18.77;7.80;;;;;;;;;;5040448;28;20043;-53
2021/04/29 06:57:32;;;;;;;18.65;7.40;;;;;;;;;;5036364;28;20044;-52
2021/04/29 06:59:58;;;;;;;19.17;7.38;;;;;;;;;;5039283;28;20040;-48
2021/04/29 07:02:23;;;;;;;15.20;7.35;;;;;;;;;;5050562;28;20033;-51
2021/04/29 07:04:49;;;;;;;15.73;7.40;;;;;;;;;;5041968;28;20135;-51
2021/04/29 07:07:15;;;;;;;15.25;7.00;;;;;;;;;;5039455;28;20040;-50
2021/04/29 07:09:42;;;;;;;19.20;7.47;;;;;;;;;;5058854;28;20041;-52
2021/04/29 07:12:08;;;;;;;14.88;6.35;;;;;;;;;;5035761;28;20021;-53
2021/04/29 07:14:35;;;;;;;14.52;6.88;;;;;;;;;;5041425;28;20052;-54
2021/04/29 07:17:01;;;;;;;14.98;6.45;;;;;;;;;;5044595;28;20036;-54
2021/04/29 07:19:27;;;;;;;18.90;7.75;;;;;;;;;;5044887;28;20130;-56
2021/04/29 07:21:53;;;;;;;16.10;7.18;;;;;;;;;;5041306;28;20052;-54
2021/04/29 07:24:19;;;;;;;14.55;7.18;;;;;;;;;;5065778;28;20407;-56
2021/04/29 07:26:46;;;;;;;19.48;8.15;;;;;;;;;;5042462;28;20098;-55
2021/04/29 07:29:12;;;;;;;13.93;7.28;;;;;;;;;;5039927;28;20042;-56
2021/04/29 07:31:39;;;;;;;15.77;7.10;;;;;;;;;;5041670;28;20056;-50
2021/04/29 07:34:04;;;;;;;15.63;7.05;;;;;;;;;;5040181;28;20064;-52
2021/04/29 07:36:30;;;;;;;16.67;7.53;;;;;;;;;;5042438;28;20051;-52
2021/04/29 07:38:58;;;;;;;16.58;7.85;;;;;;;;;;5039132;28;20048;-54
2021/04/29 07:41:24;;;;;;;13.38;6.88;;;;;;;;;;5041283;28;20046;-53
2021/04/29 07:43:51;;;;;;;14.90;7.07;;;;;;;;;;5039260;28;20045;-53
2021/04/29 07:46:20;;;;;;;12.02;6.72;;;;;;;;;;5042431;28;20049;-54
2021/04/29 07:48:46;;;;;;;;;;;;;;;;;;5039065;28;20053;-55
2021/04/29 07:51:12;;;;;;;13.23;7.18;;;;;;;;;;5042916;28;19931;-55
2021/04/29 07:53:37;;;;;;;15.45;7.55;;;;;;;;;;5041818;28;20123;-52
2021/04/29 07:56:04;;;;;;;15.23;7.45;;;;;;;;;;5046525;28;20032;-54
2021/04/29 07:58:30;;;;;;;16.67;7.15;;;;;;;;;;5059136;28;20033;-53
2021/04/29 08:00:56;;;;;;;16.25;7.57;;;;;;;;;;5045272;28;20048;-53
2021/04/29 08:03:22;;;;;;;17.48;7.47;;;;;;;;;;5043366;28;20056;-51
2021/04/29 08:05:50;;;;;;;17.75;8.05;;;;;;;;;;5044992;28;20033;-48
2021/04/29 08:08:16;;;;;;;15.10;7.40;;;;;;;;;;5065108;28;20047;-52
2021/04/29 08:10:42;;;;;;;14.05;7.15;;;;;;;;;;5040990;28;20029;-53
2021/04/29 08:13:10;;;;;;;16.23;7.07;;;;;;;;;;5026658;28;20048;-50
2021/04/29 08:15:36;;;;;;;15.75;8.07;;;;;;;;;;5036036;28;20049;-53
2021/04/29 08:18:03;;;;;;;13.10;6.72;;;;;;;;;;5043448;28;20069;-52
2021/04/29 08:20:29;;;;;;;16.48;7.43;;;;;;;;;;5058833;28;20044;-55
2021/04/29 08:22:57;;;;;;;21.77;7.40;;;;;;;;;;5045387;28;20049;-51
2021/04/29 08:25:23;;;;;;;17.88;7.20;;;;;;;;;;5059268;28;20117;-54
2021/04/29 08:27:50;;;;;;;20.70;7.75;;;;;;;;;;5064308;28;20044;-50
2021/04/29 08:30:16;;;;;;;14.75;7.43;;;;;;;;;;5038796;28;20041;-54
2021/04/29 08:32:43;;;;;;;16.77;7.32;;;;;;;;;;5041087;28;20045;-54
2021/04/29 08:35:10;;;;;;;14.15;6.75;;;;;;;;;;5041788;28;20122;-54
2021/04/29 08:37:36;;;;;;;16.77;8.10;;;;;;;;;;5045508;28;20025;-54
2021/04/29 08:40:04;;;;;;;23.92;11.45;;;;;;;;;;5059898;28;20045;-55
2021/04/29 08:42:30;;;;;;;17.02;9.82;;;;;;;;;;5044763;28;20045;-52
2021/04/29 08:44:57;;;;;;;16.92;7.55;;;;;;;;;;5040952;28;20122;-52
2021/04/29 08:47:24;;;;;;;13.82;7.43;;;;;;;;;;5045519;28;20048;-54
2021/04/29 08:49:50;;;;;;;14.48;7.43;;;;;;;;;;5056806;28;20130;-52
2021/04/29 08:52:17;;;;;;;23.77;7.88;;;;;;;;;;5057875;28;20059;-53
2021/04/29 08:54:46;;;;;;;16.65;7.28;;;;;;;;;;5041442;28;20045;-51
2021/04/29 08:57:13;;;;;;;14.93;7.00;;;;;;;;;;5037000;28;20033;-54
2021/04/29 08:59:40;;;;;;;13.65;6.95;;;;;;;;;;5041133;28;20049;-51
2021/04/29 09:02:06;;;;;;;15.27;7.50;;;;;;;;;;5054895;28;20079;-56
2021/04/29 09:04:38;;;;;;;16.38;7.15;;;;;;;;;;5041041;28;20048;-54
2021/04/29 09:07:11;;;;;;;15.52;6.85;;;;;;;;;;5038181;28;20025;-55
2021/04/29 09:09:40;;;;;;;14.02;6.97;;;;;;;;;;5025924;28;20044;-55
2021/04/29 09:12:06;;;;;;;14.65;6.68;;;;;;;;;;5020688;28;20037;-50
2021/04/29 09:14:35;;;;;;;14.65;6.95;;;;;;;;;;5024095;28;20030;-56
2021/04/29 09:17:01;;;;;;;;;;;;;;;;;;5021249;28;20043;-52
2021/04/29 09:19:28;;;;;;;15.40;6.50;;;;;;;;;;5035942;28;19988;-53
2021/04/29 09:21:54;;;;;;;18.40;7.13;;;;;;;;;;5038514;28;20048;-52
2021/04/29 09:24:30;;;;;;;13.93;6.65;;;;;;;;;;5025191;28;20053;-50
2021/04/29 09:27:08;;;;;;;14.75;6.45;;;;;;;;;;5021758;28;20041;-52
2021/04/29 09:29:34;;;;;;;14.30;7.30;;;;;;;;;;5016329;28;20041;-53
2021/04/29 09:31:59;;;;;;;16.58;7.30;;;;;;;;;;5020129;28;20077;-52
2021/04/29 09:34:25;;;;;;;16.17;6.20;;;;;;;;;;5039259;28;20048;-51
2021/04/29 09:36:52;;;;;;;14.80;7.25;;;;;;;;;;5038973;28;20029;-52
2021/04/29 09:39:18;;;;;;;19.23;7.95;;;;;;;;;;5042234;28;20037;-52
2021/04/29 09:41:46;;;;;;;16.55;7.00;;;;;;;;;;5044066;28;20041;-51
2021/04/29 09:44:13;;;;;;;16.00;7.22;;;;;;;;;;5022638;28;20041;-52
2021/04/29 09:46:40;;;;;;;14.00;6.40;;;;;;;;;;5042512;28;20107;-54
2021/04/29 09:49:16;;;;;;;16.73;7.80;;;;;;;;;;5024587;28;20037;-53
2021/04/29 09:51:42;;;;;;;12.63;6.32;;;;;;;;;;5022455;28;20045;-53
2021/04/29 09:54:08;;;;;;;16.92;7.53;;;;;;;;;;5014355;28;20086;-52
2021/04/29 09:56:35;;;;;;;20.13;7.45;;;;;;;;;;5021064;28;20057;-51
2021/04/29 09:59:02;;;;;;;18.60;7.65;;;;;;;;;;5027694;28;20048;-52
2021/04/29 10:01:29;;;;;;;18.02;8.18;;;;;;;;;;5038442;28;20043;-52
2021/04/29 10:03:56;;;;;;;17.10;7.45;;;;;;;;;;5015129;28;20056;-54
2021/04/29 10:06:22;;;;;;;17.50;7.90;;;;;;;;;;5022677;28;20052;-53
2021/04/29 10:08:50;;;;;;;22.27;8.55;;;;;;;;;;5019494;28;20127;-53
2021/04/29 10:11:17;;;;;;;20.25;8.90;;;;;;;;;;5024293;28;20095;-51
2021/04/29 10:13:44;;;;;;;19.52;8.02;;;;;;;;;;5019987;28;20093;-51
2021/04/29 10:16:12;;;;;;;16.58;7.38;;;;;;;;;;5024650;28;20101;-53
2021/04/29 10:18:39;;;;;;;19.15;8.15;;;;;;;;;;5017869;28;20053;-54
2021/04/29 10:21:06;;;;;;;15.98;7.57;;;;;;;;;;5048062;28;20048;-53
2021/04/29 10:23:32;;;;;;;13.50;6.72;;;;;;;;;;5024459;28;20037;-53
2021/04/29 10:26:00;;;;;;;10.82;5.72;;;;;;;;;;5019176;28;20102;-54
2021/04/29 10:28:37;;;;;;;12.65;6.65;;;;;;;;;;5035586;28;20107;-53
2021/04/29 10:31:16;;;;;;;16.38;7.63;;;;;;;;;;5035873;28;20051;-55
2021/04/29 10:33:54;;;;;;;16.55;7.28;;;;;;;;;;5040779;28;20037;-52
2021/04/29 10:36:20;;;;;;;15.60;7.18;;;;;;;;;;5036013;28;20045;-54
2021/04/29 10:38:46;;;;;;;18.48;6.75;;;;;;;;;;5040673;28;20037;-52
2021/04/29 10:41:23;;;;;;;20.55;6.93;;;;;;;;;;5037224;28;20041;-50
2021/04/29 10:43:49;;;;;;;18.67;7.85;;;;;;;;;;5039652;28;20086;-53
2021/04/29 10:46:27;;;;;;;16.73;7.15;;;;;;;;;;5036427;28;20038;-53
2021/04/29 10:48:54;;;;;;;13.85;6.70;;;;;;;;;;5039260;28;20508;-51
2021/04/29 10:51:21;;;;;;;19.15;7.57;;;;;;;;;;5037577;28;20041;-54
2021/04/29 10:53:47;;;;;;;13.73;6.57;;;;;;;;;;5040550;28;20052;-51
2021/04/29 10:56:14;;;;;;;15.07;7.00;;;;;;;;;;5037858;28;20056;-52
2021/04/29 10:58:40;;;;;;;13.35;6.53;;;;;;;;;;5039839;28;20157;-53
2021/04/29 11:01:07;;;;;;;13.90;6.40;;;;;;;;;;5032401;28;20056;-52
2021/04/29 11:03:35;;;;;;;13.38;6.63;;;;;;;;;;5041868;28;20037;-52
2021/04/29 11:06:12;;;;;;;11.70;5.32;;;;;;;;;;5019486;28;20041;-52
2021/04/29 11:08:39;;;;;;;13.93;5.57;;;;;;;;;;5025626;28;20320;-52
2021/04/29 11:11:06;;;;;;;11.27;5.78;;;;;;;;;;5022244;28;20034;-53
2021/04/29 11:13:32;;;;;;;17.23;7.15;;;;;;;;;;5042192;28;20041;-55
2021/04/29 11:15:59;;;;;;;17.20;7.00;;;;;;;;;;5035996;28;20080;-54
2021/04/29 11:18:25;;;;;;;14.35;6.38;;;;;;;;;;5040725;28;20049;-51
2021/04/29 11:20:52;;;;;;;13.80;7.45;;;;;;;;;;5039902;28;20048;-54
2021/04/29 11:23:19;;;;;;;16.98;8.27;;;;;;;;;;5036429;28;20052;-52
2021/04/29 11:25:45;;;;;;;13.65;6.47;;;;;;;;;;5039439;28;20052;-54
2021/04/29 11:28:12;;;;;;;13.68;6.30;;;;;;;;;;5037625;28;20041;-52
2021/04/29 11:30:39;;;;;;;13.63;6.57;;;;;;;;;;5039293;28;20045;-50
2021/04/29 11:33:08;;;;;;;17.05;7.90;;;;;;;;;;5024786;28;20052;-51
2021/04/29 11:35:35;;;;;;;15.60;6.88;;;;;;;;;;5037856;28;20047;-54
2021/04/29 11:38:02;;;;;;;15.23;6.18;;;;;;;;;;5016444;28;20045;-54
2021/04/29 11:40:29;;;;;;;12.27;6.13;;;;;;;;;;5020647;28;20057;-54
2021/04/29 11:42:56;;;;;;;14.13;6.50;;;;;;;;;;5018424;28;20146;-54
2021/04/29 11:45:23;;;;;;;15.13;7.03;;;;;;;;;;5039282;28;20041;-52
2021/04/29 11:47:57;;;;;;;15.02;7.80;;;;;;;;;;5035139;28;20056;-53
2021/04/29 11:50:24;;;;;;;16.40;8.02;;;;;;;;;;5022486;28;20040;-53
2021/04/29 11:52:50;;;;;;;13.13;6.18;;;;;;;;;;5035860;28;20061;-55
2021/04/29 11:55:23;;;;;;;14.60;6.82;;;;;;;;;;5035721;28;20120;-56
2021/04/29 11:57:53;;;;;;;14.45;6.90;;;;;;;;;;5052557;28;20034;-54
2021/04/29 12:00:29;;;;;;;19.77;7.25;;;;;;;;;;5042506;28;20037;-55
2021/04/29 12:02:58;;;;;;;15.73;7.15;;;;;;;;;;5039275;28;20049;-55
2021/04/29 12:05:35;;;;;;;13.18;6.55;;;;;;;;;;5060181;28;20052;-52
2021/04/29 12:08:03;;;;;;;15.73;7.57;;;;;;;;;;5042885;28;20045;-53
2021/04/29 12:10:40;;;;;;;12.38;6.35;;;;;;;;;;5046097;28;20065;-56
2021/04/29 12:13:07;;;;;;;15.70;5.82;;;;;;;;;;5042432;28;20037;-56
2021/04/29 12:15:36;;;;;;;11.73;5.95;;;;;;;;;;5061869;28;20053;-56
2021/04/29 12:18:03;;;;;;;13.25;6.00;;;;;;;;;;5046605;28;20060;-55
2021/04/29 12:20:29;;;;;;;11.57;5.68;;;;;;;;;;5037552;28;20056;-53
2021/04/29 12:22:55;;;;;;;13.65;5.82;;;;;;;;;;5042801;28;20041;-53
2021/04/29 12:25:22;;;;;;;13.38;5.82;;;;;;;;;;5039689;28;20084;-55
2021/04/29 12:27:49;;;;;;;8.38;4.50;;;;;;;;;;5040936;28;20056;-53
2021/04/29 12:30:16;;;;;;;12.45;6.82;;;;;;;;;;5054754;28;20047;-55
2021/04/29 12:32:44;;;;;;;12.43;5.95;;;;;;;;;;5044180;28;20025;-53
2021/04/29 12:35:11;;;;;;;8.77;4.57;;;;;;;;;;5041757;28;20052;-52
2021/04/29 12:37:37;;;;;;;9.10;5.43;;;;;;;;;;5045778;28;20071;-52
2021/04/29 12:40:04;;;;;;;10.23;4.38;;;;;;;;;;5060026;28;20102;-53
2021/04/29 12:42:30;;;;;;;13.45;4.80;;;;;;;;;;5064863;28;20073;-54
2021/04/29 12:44:58;;;;;;;11.43;4.68;;;;;;;;;;5038023;28;20093;-50
2021/04/29 12:47:32;;;;;;;9.63;4.93;;;;;;;;;;5043816;28;20044;-54
2021/04/29 12:49:59;;;;;;;10.85;5.18;;;;;;;;;;5037891;28;20126;-55
2021/04/29 12:52:25;;;;;;;10.07;4.85;;;;;;;;;;5041852;28;20053;-53
2021/04/29 12:54:53;;;;;;;12.90;5.05;;;;;;;;;;5042602;28;20112;-53
2021/04/29 12:57:23;;;;;;;10.32;5.35;;;;;;;;;;5044396;28;20036;-51
2021/04/29 12:59:49;;;;;;;9.45;4.72;;;;;;;;;;5042071;28;20040;-55
2021/04/29 13:02:19;;;;;;;9.52;4.97;;;;;;;;;;5043258;28;20044;-56
2021/04/29 13:04:46;;;;;;;10.95;5.25;;;;;;;;;;5045982;28;20057;-55
2021/04/29 13:07:20;;;;;;;10.65;5.30;;;;;;;;;;5038414;28;20045;-52
2021/04/29 13:09:49;;;;;;;10.88;4.45;;;;;;;;;;5040326;28;20037;-54
2021/04/29 13:12:16;;;;;;;10.60;5.20;;;;;;;;;;5034886;28;20052;-53
2021/04/29 13:14:44;;;;;;;10.48;5.32;;;;;;;;;;5040071;28;20045;-55
2021/04/29 13:17:16;;;;;;;12.93;4.97;;;;;;;;;;5039982;28;20059;-54
2021/04/29 13:19:43;;;;;;;12.77;5.32;;;;;;;;;;5043465;28;20386;-55
2021/04/29 13:22:11;;;;;;;10.75;4.47;;;;;;;;;;5038296;28;20037;-50
2021/04/29 13:24:44;;;;;;;15.43;5.88;;;;;;;;;;5042136;28;20152;-52
2021/04/29 13:27:10;;;;;;;12.90;4.88;;;;;;;;;;5029727;28;20037;-56
2021/04/29 13:29:36;;;;;;;13.45;5.75;;;;;;;;;;5041939;28;20104;-54
2021/04/29 13:32:02;;;;;;;10.65;4.60;;;;;;;;;;5045865;28;20135;-53
2021/04/29 13:34:28;;;;;;;14.35;6.22;;;;;;;;;;5061912;28;20101;-55
2021/04/29 13:36:54;;;;;;;13.93;5.82;;;;;;;;;;5041696;28;20049;-54
2021/04/29 13:39:22;;;;;;;10.23;4.75;;;;;;;;;;5044099;28;20039;-53
2021/04/29 13:41:50;;;;;;;12.05;4.55;;;;;;;;;;5041360;28;20049;-54
2021/04/29 13:44:16;;;;;;;10.98;4.57;;;;;;;;;;5044517;28;20097;-55
2021/04/29 13:46:42;;;;;;;10.93;4.20;;;;;;;;;;5041300;28;20041;-52
2021/04/29 13:49:08;;;;;;;9.60;4.60;;;;;;;;;;5044698;28;20051;-55
2021/04/29 13:51:34;;;;;;;10.63;3.95;;;;;;;;;;5043750;28;20204;-52
2021/04/29 13:54:01;;;;;;;11.68;5.00;;;;;;;;;;5042066;28;20040;-54
2021/04/29 13:56:28;;;;;;;13.48;4.93;;;;;;;;;;5045401;28;20125;-54
2021/04/29 13:58:54;;;;;;;8.43;3.58;;;;;;;;;;5042532;28;20030;-52
2021/04/29 14:01:21;;;;;;;10.90;4.38;;;;;;;;;;5042710;28;20081;-52
2021/04/29 14:03:47;;;;;;;11.20;3.85;;;;;;;;;;5052874;28;20051;-52
2021/04/29 14:06:13;;;;;;;9.85;3.88;;;;;;;;;;5045766;28;20036;-56
2021/04/29 14:08:39;;;;;;;11.80;5.05;;;;;;;;;;5049161;28;20050;-52
2021/04/29 14:11:06;;;;;;;9.77;4.32;;;;;;;;;;5042245;28;20048;-55
2021/04/29 14:13:33;;;;;;;9.77;3.70;;;;;;;;;;5037951;28;20029;-54
2021/04/29 14:15:59;;;;;;;8.30;3.90;;;;;;;;;;5042190;28;20037;-51
2021/04/29 14:18:28;;;;;;;9.30;3.38;;;;;;;;;;5041554;28;20045;-57
2021/04/29 14:20:56;;;;;;;10.90;3.97;;;;;;;;;;5046393;28;20044;-52
2021/04/29 14:23:22;;;;;;;11.55;4.50;;;;;;;;;;5039924;28;20041;-56
2021/04/29 14:25:48;;;;;;;11.13;4.13;;;;;;;;;;5044551;28;20047;-53
2021/04/29 14:28:14;;;;;;;11.40;4.05;;;;;;;;;;5042114;28;20041;-57
2021/04/29 14:30:41;;;;;;;10.45;3.97;;;;;;;;;;5042656;28;20049;-55